createdAt,value
2022-12-28T00:01:37.110Z,7.47
2022-12-28T00:06:57.673Z,5.43
2022-12-28T00:12:18.239Z,5.10
2022-12-28T00:17:39.051Z,6.82
2022-12-28T00:22:59.685Z,5.35
2022-12-28T00:28:20.763Z,5.32
2022-12-28T00:33:41.650Z,8.57
2022-12-28T00:39:02.218Z,6.80
2022-12-28T00:44:23.038Z,6.82
2022-12-28T00:49:43.659Z,5.80
2022-12-28T00:55:04.748Z,7.32
2022-12-28T01:00:25.554Z,5.25
2022-12-28T01:05:46.195Z,6.85
2022-12-28T01:11:13.660Z,6.07
2022-12-28T01:16:36.577Z,5.53
2022-12-28T01:21:58.030Z,5.90
2022-12-28T01:27:18.873Z,5.43
2022-12-28T01:32:39.903Z,2.75
2022-12-28T01:38:01.495Z,4.78
2022-12-28T01:43:41.649Z,5.55
2022-12-28T01:49:08.356Z,4.90
2022-12-28T01:54:34.422Z,4.07
2022-12-28T02:00:17.470Z,4.53
2022-12-28T02:05:50.849Z,5.75
2022-12-28T02:11:15.695Z,4.60
2022-12-28T02:16:36.473Z,7.40
2022-12-28T02:22:32.534Z,8.00
2022-12-28T02:28:21.189Z,5.15
2022-12-28T02:33:53.904Z,4.38
2022-12-28T02:39:27.419Z,8.38
2022-12-28T02:45:06.932Z,8.50
2022-12-28T02:50:39.773Z,3.33
2022-12-28T02:56:31.768Z,3.50
2022-12-28T03:02:21.650Z,4.43
2022-12-28T03:08:14.799Z,4.10
2022-12-28T03:13:45.425Z,4.97
2022-12-28T03:19:30.474Z,8.20
2022-12-28T03:25:14.151Z,4.55
2022-12-28T03:30:58.614Z,2.20
2022-12-28T03:36:30.552Z,4.00
2022-12-28T03:42:24.779Z,5.25
2022-12-28T03:47:50.354Z,3.70
2022-12-28T03:53:11.735Z,4.18
2022-12-28T03:58:33.735Z,3.17
2022-12-28T04:03:54.466Z,3.25
2022-12-28T04:09:16.220Z,1.83
2022-12-28T04:14:37.066Z,3.67
2022-12-28T04:19:58.210Z,3.97
2022-12-28T04:25:19.307Z,2.97
2022-12-28T04:30:40.299Z,5.03
2022-12-28T04:36:16.702Z,4.25
2022-12-28T04:41:40.332Z,5.57
2022-12-28T04:47:01.257Z,5.82
2022-12-28T04:52:22.421Z,1.65
2022-12-28T04:57:44.540Z,1.65
2022-12-28T05:03:05.717Z,1.83
2022-12-28T05:08:26.398Z,3.88
2022-12-28T05:13:47.950Z,4.85
2022-12-28T05:19:08.930Z,3.78
2022-12-28T05:24:29.714Z,2.97
2022-12-28T05:29:50.581Z,1.80
2022-12-28T05:35:11.229Z,2.05
2022-12-28T05:40:32.046Z,2.88
2022-12-28T05:45:52.725Z,4.00
2022-12-28T05:51:16.253Z,5.53
2022-12-28T05:56:37.235Z,3.85
2022-12-28T06:01:57.911Z,3.25
2022-12-28T06:07:18.680Z,5.00
2022-12-28T06:12:39.353Z,3.55
2022-12-28T06:18:00.231Z,3.92
2022-12-28T06:23:20.952Z,5.00
2022-12-28T06:28:42.117Z,4.00
2022-12-28T06:34:04.347Z,4.78
2022-12-28T06:39:25.426Z,4.95
2022-12-28T06:44:46.143Z,2.90
2022-12-28T06:50:07.366Z,3.17
2022-12-28T06:55:28.218Z,4.55
2022-12-28T07:00:48.961Z,4.38
2022-12-28T07:06:10.934Z,3.72
2022-12-28T07:11:32.002Z,3.63
2022-12-28T07:16:53.699Z,5.82
2022-12-28T07:22:14.465Z,2.30
2022-12-28T07:27:38.212Z,6.03
2022-12-28T07:32:59.101Z,6.45
2022-12-28T07:38:21.637Z,4.07
2022-12-28T07:43:43.267Z,2.45
2022-12-28T07:49:04.226Z,4.63
2022-12-28T07:54:25.242Z,2.60
2022-12-28T07:59:45.900Z,2.15
2022-12-28T08:05:07.077Z,4.45
2022-12-28T08:10:28.377Z,4.07
2022-12-28T08:15:55.653Z,3.15
2022-12-28T08:21:32.624Z,5.15
2022-12-28T08:26:53.469Z,5.50
2022-12-28T08:32:14.030Z,4.75
2022-12-28T08:37:35.975Z,3.92
2022-12-28T08:43:01.481Z,5.82
2022-12-28T08:48:23.965Z,2.35
2022-12-28T08:53:45.601Z,4.78
2022-12-28T08:59:06.924Z,5.35
2022-12-28T09:04:30.254Z,3.30
2022-12-28T09:09:51.081Z,3.15
2022-12-28T09:15:11.948Z,4.07
2022-12-28T09:20:35.113Z,6.75
2022-12-28T09:25:55.647Z,2.97
2022-12-28T09:31:17.970Z,5.57
2022-12-28T09:36:44.500Z,5.07
2022-12-28T09:42:13.398Z,2.33
2022-12-28T09:47:47.340Z,3.20
2022-12-28T09:53:08.331Z,6.05
2022-12-28T09:58:30.858Z,5.88
2022-12-28T10:03:51.895Z,3.15
2022-12-28T10:09:25.405Z,5.78
2022-12-28T10:14:47.867Z,2.65
2022-12-28T10:20:19.861Z,2.25
2022-12-28T10:25:43.151Z,2.92
2022-12-28T10:31:09.754Z,2.20
2022-12-28T10:36:34.859Z,2.55
2022-12-28T10:41:58.420Z,1.63
2022-12-28T10:47:35.389Z,2.17
2022-12-28T10:52:58.515Z,1.92
2022-12-28T10:58:33.501Z,3.45
2022-12-28T11:04:05.695Z,5.50
2022-12-28T11:09:29.958Z,4.10
2022-12-28T11:14:52.486Z,2.88
2022-12-28T11:20:20.047Z,3.38
2022-12-28T11:25:41.362Z,3.20
2022-12-28T11:31:03.758Z,3.80
2022-12-28T11:36:27.474Z,4.13
2022-12-28T11:42:10.358Z,3.15
2022-12-28T11:47:33.522Z,3.47
2022-12-28T11:52:54.597Z,3.15
2022-12-28T11:58:30.664Z,2.65
2022-12-28T12:03:57.468Z,2.45
2022-12-28T12:09:21.176Z,2.58
2022-12-28T12:14:51.264Z,2.40
2022-12-28T12:20:23.127Z,6.35
2022-12-28T12:25:49.179Z,2.78
2022-12-28T12:31:16.582Z,6.40
2022-12-28T12:36:47.974Z,5.75
2022-12-28T12:42:26.379Z,1.27
2022-12-28T12:48:05.179Z,1.33
2022-12-28T12:53:53.764Z,3.47
2022-12-28T12:59:36.969Z,3.33
2022-12-28T13:05:01.507Z,2.13
2022-12-28T13:10:45.454Z,2.67
2022-12-28T13:16:12.500Z,3.10
2022-12-28T13:21:44.680Z,3.22
2022-12-28T13:27:19.069Z,3.65
2022-12-28T13:32:51.754Z,3.03
2022-12-28T13:38:14.567Z,3.00
2022-12-28T13:44:12.488Z,4.43
2022-12-28T13:49:40.310Z,8.27
2022-12-28T13:55:07.256Z,4.85
2022-12-28T14:00:30.782Z,4.85
2022-12-28T14:05:57.097Z,3.28
2022-12-28T14:11:18.298Z,2.53
2022-12-28T14:16:40.625Z,3.47
2022-12-28T14:22:01.582Z,3.47
2022-12-28T14:27:22.640Z,3.95
2022-12-28T14:32:43.518Z,4.55
2022-12-28T14:38:05.308Z,4.10
2022-12-28T14:43:27.691Z,2.22
2022-12-28T14:48:48.464Z,2.92
2022-12-28T14:54:12.177Z,3.75
2022-12-28T14:59:38.319Z,5.10
2022-12-28T15:05:00.962Z,2.45
2022-12-28T15:10:21.799Z,3.38
2022-12-28T15:15:42.823Z,3.25
2022-12-28T15:21:05.270Z,2.47
2022-12-28T15:26:28.044Z,4.07
2022-12-28T15:31:48.768Z,2.45
2022-12-28T15:37:09.447Z,1.90
2022-12-28T15:42:33.705Z,4.22
2022-12-28T15:47:59.171Z,3.50
2022-12-28T15:53:19.877Z,3.38
2022-12-28T15:58:40.601Z,1.67
2022-12-28T16:04:02.627Z,4.43
2022-12-28T16:09:23.310Z,3.58
2022-12-28T16:14:47.482Z,3.40
2022-12-28T16:20:08.894Z,2.30
2022-12-28T16:25:29.792Z,3.22
2022-12-28T16:30:50.684Z,2.13
2022-12-28T16:36:12.354Z,5.15
2022-12-28T16:41:36.827Z,4.35
2022-12-28T16:46:58.700Z,2.70
2022-12-28T16:52:19.457Z,4.03
2022-12-28T16:57:40.194Z,3.92
2022-12-28T17:03:01.305Z,5.43
2022-12-28T17:08:22.388Z,6.63
2022-12-28T17:13:43.255Z,3.45
2022-12-28T17:19:04.927Z,5.47
2022-12-28T17:24:26.031Z,4.80
2022-12-28T17:29:46.878Z,4.30
2022-12-28T17:35:08.837Z,4.63
2022-12-28T17:40:29.924Z,8.73
2022-12-28T17:45:50.626Z,5.15
2022-12-28T17:51:11.755Z,5.85
2022-12-28T17:56:32.692Z,5.70
2022-12-28T18:01:53.856Z,5.63
2022-12-28T18:07:14.548Z,8.23
2022-12-28T18:12:35.519Z,3.90
2022-12-28T18:17:56.130Z,2.78
2022-12-28T18:23:16.954Z,4.72
2022-12-28T18:28:37.791Z,2.65
2022-12-28T18:34:02.444Z,4.15
2022-12-28T18:39:23.505Z,6.80
2022-12-28T18:44:44.254Z,9.85
2022-12-28T18:50:05.565Z,17.23
2022-12-28T18:55:26.497Z,14.48
2022-12-28T19:00:47.173Z,12.35
2022-12-28T19:06:09.581Z,10.18
2022-12-28T19:11:31.030Z,11.18
2022-12-28T19:16:52.069Z,14.27
2022-12-28T19:22:12.947Z,13.40
2022-12-28T19:27:34.440Z,9.43
2022-12-28T19:32:55.753Z,12.70
2022-12-28T19:38:16.549Z,9.82
2022-12-28T19:43:37.517Z,9.35
2022-12-28T19:48:59.925Z,7.55
2022-12-28T19:54:20.722Z,10.02
2022-12-28T19:59:41.443Z,9.80
2022-12-28T20:05:02.238Z,8.35
2022-12-28T20:10:22.835Z,8.02
2022-12-28T20:15:43.720Z,8.27
2022-12-28T20:21:22.669Z,7.28
2022-12-28T20:26:43.620Z,6.60
2022-12-28T20:32:04.664Z,4.93
2022-12-28T20:37:26.811Z,3.47
2022-12-28T20:43:08.987Z,6.07
2022-12-28T20:48:29.984Z,4.43
2022-12-28T20:53:51.410Z,2.10
2022-12-28T20:59:13.815Z,2.65
2022-12-28T21:04:35.563Z,3.92
2022-12-28T21:09:56.292Z,3.85
2022-12-28T21:15:17.253Z,2.70
2022-12-28T21:20:43.868Z,5.07
2022-12-28T21:26:09.623Z,2.65
2022-12-28T21:31:32.125Z,3.97
2022-12-28T21:36:54.302Z,3.03
2022-12-28T21:42:15.571Z,1.73
2022-12-28T21:47:36.922Z,3.75
2022-12-28T21:52:57.583Z,3.20
2022-12-28T21:58:18.290Z,2.75
2022-12-28T22:03:57.509Z,3.40
2022-12-28T22:09:37.741Z,2.13
2022-12-28T22:15:22.240Z,2.53
2022-12-28T22:20:43.335Z,2.63
2022-12-28T22:26:04.477Z,3.42
2022-12-28T22:31:25.423Z,3.03
2022-12-28T22:36:46.314Z,2.22
2022-12-28T22:42:10.053Z,1.70
2022-12-28T22:47:31.030Z,2.28
2022-12-28T22:52:51.755Z,4.05
2022-12-28T22:58:12.450Z,1.63
2022-12-28T23:03:33.528Z,1.67
2022-12-28T23:08:54.463Z,3.17
2022-12-28T23:14:41.055Z,3.30
2022-12-28T23:20:22.575Z,1.73
2022-12-28T23:26:01.848Z,4.78
2022-12-28T23:31:22.588Z,3.85
2022-12-28T23:36:43.370Z,2.72
2022-12-28T23:42:03.963Z,2.15
2022-12-28T23:47:24.821Z,2.28
2022-12-28T23:52:45.757Z,1.85
2022-12-28T23:58:06.452Z,1.98
